Observations for CRANWELL RAF, United Kingdom (EGYD)

EGYD 190250Z AUTO 21013KT 9999 // SCT021/// SCT029/// 16/14 Q1008   
EGYD 190150Z AUTO 20019KT 9999 // FEW060/// 17/13 Q1008 
EGYD 190050Z AUTO 21017KT 9999 // SCT050/// BKN140/// 18/13 Q1009   
EGYD 182350Z AUTO 22018KT 9999 // OVC130/// 18/13 Q1009 
EGYD 182250Z AUTO 22021KT 9999 // SCT050/// BKN150/// 18/13 Q1008   
EGYD 182150Z AUTO 20019KT 9999 // FEW023/// SCT150/// OVC180/// 18/14 Q1008 
EGYD 182050Z AUTO 19017KT 9999 // BKN170/// 18/14 Q1008 
EGYD 181950Z AUTO 20018KT 9999 // FEW170/// 18/14 Q1008 
EGYD 181850Z AUTO 20017KT 9999 // NCD 18/13 Q1008   
EGYD 181750Z AUTO 22021G33KT 9999 // NCD 20/12 Q1007
EGYD 181650Z AUTO 22023KT 9999 // FEW033/// 21/13 Q1007 
EGYD 181550Z 23026KT 9999 FEW038 SCT250 20/13 Q1007 BLU 
EGYD 181450Z 22023KT 9999 FEW037 SCT045 BKN250 21/13 Q1006 BLU  
EGYD 181350Z 25025KT 9999 FEW038 SCT040 21/12 Q1006 BLU 
EGYD 181250Z 24025KT 9999 FEW038 BKN250 21/12 Q1005 BLU 
EGYD 181150Z 23025KT 9999 FEW030 BKN250 21/13 Q1004 BLU 
EGYD 181050Z 22028KT 9999 FEW028 BKN250 19/13 Q1003 BLU NOSIG   
EGYD 180950Z 22031KT 9999 BKN024 20/14 Q1002 WHT BECMG BKN025 BLU   
EGYD 180850Z 22025G36KT 9999 SCT019 BKN025 BKN040 20/15 Q1001 WHT NOSIG 
EGYD 180750Z 20026KT 9999 SCT021 BKN040 19/15 Q1001 WHT NOSIG   
EGYD 180650Z 19022KT 9999 -DZ BKN019 BKN021 18/15 Q1000 WHT NOSIG   
EGYD 180550Z 19020KT 9999 BKN021 19/15 Q1000 WHT NOSIG  
EGYD 180450Z AUTO 16010KT 9999 // BKN022/// 16/14 Q1000 
EGYD 180350Z AUTO 12009KT 9999 // FEW026/// 13/11 Q1001 
EGYD 180250Z AUTO 16010KT 9999 // FEW018/// 13/10 Q1002